createdAt,value
2023-11-01T00:01:58.756Z,11.26
2023-11-01T00:04:29.300Z,11.22
2023-11-01T00:07:01.520Z,11.24
2023-11-01T00:09:31.040Z,12.53
2023-11-01T00:12:08.128Z,12.67
2023-11-01T00:14:37.369Z,12.59
2023-11-01T00:17:08.741Z,12.72
2023-11-01T00:19:40.854Z,12.59
2023-11-01T00:22:10.795Z,12.73
2023-11-01T00:24:44.221Z,12.55
2023-11-01T00:27:14.726Z,12.57
2023-11-01T00:29:46.235Z,11.02
2023-11-01T00:32:21.008Z,12.50
2023-11-01T00:34:53.478Z,13.03
2023-11-01T00:37:29.251Z,13.16
2023-11-01T00:39:59.861Z,13.32
2023-11-01T00:42:28.818Z,13.52
2023-11-01T00:44:57.696Z,13.51
2023-11-01T00:47:26.703Z,13.36
2023-11-01T00:49:56.844Z,13.38
2023-11-01T00:52:28.929Z,13.41
2023-11-01T00:54:58.064Z,12.23
2023-11-01T00:57:28.279Z,11.46
2023-11-01T00:59:57.763Z,11.19
2023-11-01T01:02:29.425Z,10.95
2023-11-01T01:05:00.545Z,10.85
2023-11-01T01:07:30.372Z,10.79
2023-11-01T01:09:59.652Z,10.84
2023-11-01T01:12:28.978Z,10.91
2023-11-01T01:14:59.216Z,10.85
2023-11-01T01:17:29.566Z,10.73
2023-11-01T01:20:00.111Z,10.70
2023-11-01T01:22:29.847Z,10.65
2023-11-01T01:25:02.113Z,10.60
2023-11-01T01:27:37.003Z,10.65
2023-11-01T01:30:06.562Z,10.61
2023-11-01T01:32:37.208Z,10.67
2023-11-01T01:35:10.412Z,10.68
2023-11-01T01:37:42.170Z,10.69
2023-11-01T01:40:18.156Z,10.72
2023-11-01T01:42:46.984Z,10.68
2023-11-01T01:45:15.958Z,10.75
2023-11-01T01:47:45.367Z,10.70
2023-11-01T01:50:16.482Z,10.70
2023-11-01T01:52:48.225Z,10.69
2023-11-01T01:55:19.417Z,10.66
2023-11-01T01:57:51.049Z,10.77
2023-11-01T02:00:21.604Z,10.63
2023-11-01T02:02:53.927Z,10.61
2023-11-01T02:05:25.641Z,10.63
2023-11-01T02:07:55.723Z,10.64
2023-11-01T02:10:26.928Z,10.58
2023-11-01T02:12:56.062Z,10.52
2023-11-01T02:15:27.911Z,10.50
2023-11-01T02:17:58.181Z,10.58
2023-11-01T02:20:30.066Z,10.54
2023-11-01T02:22:59.565Z,10.44
2023-11-01T02:25:30.026Z,10.48
2023-11-01T02:27:59.764Z,10.49
2023-11-01T02:30:30.732Z,10.48
2023-11-01T02:33:00.198Z,10.49
2023-11-01T02:35:29.861Z,10.50
2023-11-01T02:38:01.058Z,10.49
2023-11-01T02:40:31.582Z,10.50
2023-11-01T02:43:01.931Z,10.51
2023-11-01T02:45:30.786Z,10.52
2023-11-01T02:48:01.431Z,10.45
2023-11-01T02:50:32.052Z,10.34
2023-11-01T02:53:02.331Z,10.29
2023-11-01T02:55:36.372Z,10.21
2023-11-01T02:58:06.748Z,10.17
2023-11-01T03:00:36.446Z,10.19
2023-11-01T03:03:07.509Z,10.10
2023-11-01T03:05:36.996Z,10.05
2023-11-01T03:08:06.725Z,10.03
2023-11-01T03:10:37.159Z,9.99
2023-11-01T03:13:07.337Z,10.13
2023-11-01T03:15:36.677Z,10.08
2023-11-01T03:18:06.098Z,10.12
2023-11-01T03:20:35.509Z,10.18
2023-11-01T03:23:05.169Z,10.13
2023-11-01T03:25:35.078Z,10.13
2023-11-01T03:28:06.403Z,10.08
2023-11-01T03:30:35.626Z,10.07
2023-11-01T03:33:05.178Z,10.03
2023-11-01T03:35:34.174Z,10.03
2023-11-01T03:38:05.846Z,10.03
2023-11-01T03:40:35.294Z,9.98
2023-11-01T03:43:07.399Z,9.95
2023-11-01T03:45:37.996Z,9.92
2023-11-01T03:48:07.507Z,9.91
2023-11-01T03:50:37.148Z,9.88
2023-11-01T03:53:06.700Z,9.87
2023-11-01T03:55:35.885Z,9.87
2023-11-01T03:58:07.369Z,9.85
2023-11-01T04:00:37.391Z,9.91
2023-11-01T04:03:06.985Z,9.93
2023-11-01T04:05:39.151Z,9.88
2023-11-01T04:08:08.551Z,9.86
2023-11-01T04:10:39.084Z,9.92
2023-11-01T04:13:11.841Z,9.92
2023-11-01T04:15:41.174Z,9.92
2023-11-01T04:18:14.851Z,9.93
2023-11-01T04:20:44.098Z,9.91
2023-11-01T04:23:13.106Z,9.93
2023-11-01T04:25:44.184Z,9.92
2023-11-01T04:28:15.483Z,9.90
2023-11-01T04:30:45.382Z,9.91
2023-11-01T04:33:17.458Z,9.89
2023-11-01T04:35:46.978Z,9.95
2023-11-01T04:38:19.950Z,9.97
2023-11-01T04:40:50.648Z,9.97
2023-11-01T04:43:21.562Z,10.04
2023-11-01T04:45:50.816Z,10.09
2023-11-01T04:48:22.078Z,10.06
2023-11-01T04:50:56.923Z,10.07
2023-11-01T04:53:29.292Z,10.00
2023-11-01T04:55:59.607Z,10.03
2023-11-01T04:58:32.528Z,10.01
2023-11-01T05:01:06.678Z,10.04
2023-11-01T05:03:40.198Z,10.00
2023-11-01T05:06:09.893Z,9.98
2023-11-01T05:08:38.893Z,10.00
2023-11-01T05:11:11.877Z,10.03
2023-11-01T05:13:43.194Z,9.96
2023-11-01T05:16:12.287Z,9.99
2023-11-01T05:18:41.273Z,9.86
2023-11-01T05:21:11.064Z,9.94
2023-11-01T05:23:40.540Z,10.03
2023-11-01T05:26:16.921Z,10.00
2023-11-01T05:28:51.351Z,9.99
2023-11-01T05:31:21.633Z,10.00
2023-11-01T05:33:53.135Z,10.00
2023-11-01T05:36:22.114Z,9.96
2023-11-01T05:38:52.331Z,10.01
2023-11-01T05:41:22.611Z,10.11
2023-11-01T05:43:56.158Z,10.12
2023-11-01T05:46:25.601Z,10.17
2023-11-01T05:48:54.518Z,10.18
2023-11-01T05:51:23.714Z,10.18
2023-11-01T05:53:53.682Z,10.16
2023-11-01T05:56:24.338Z,10.09
2023-11-01T05:58:56.944Z,10.18
2023-11-01T06:01:26.393Z,10.18
2023-11-01T06:03:58.860Z,10.18
2023-11-01T06:06:31.097Z,10.23
2023-11-01T06:08:59.930Z,10.25
2023-11-01T06:11:29.811Z,10.20
2023-11-01T06:14:00.745Z,10.16
2023-11-01T06:16:29.611Z,10.21
2023-11-01T06:18:58.895Z,10.23
2023-11-01T06:21:28.253Z,10.13
2023-11-01T06:23:59.119Z,10.21
2023-11-01T06:26:28.077Z,10.28
2023-11-01T06:28:57.245Z,10.27
2023-11-01T06:31:30.187Z,10.31
2023-11-01T06:34:01.343Z,10.31
2023-11-01T06:36:30.953Z,10.26
2023-11-01T06:39:01.653Z,10.21
2023-11-01T06:41:32.550Z,10.28
2023-11-01T06:44:03.484Z,10.16
2023-11-01T06:46:37.020Z,10.24
2023-11-01T06:49:06.996Z,10.17
2023-11-01T06:51:37.067Z,10.16
2023-11-01T06:54:15.415Z,10.22
2023-11-01T06:56:47.195Z,10.21
2023-11-01T06:59:17.646Z,10.20
2023-11-01T07:01:49.061Z,10.25
2023-11-01T07:04:18.190Z,10.40
2023-11-01T07:06:47.825Z,10.39
2023-11-01T07:09:17.379Z,10.45
2023-11-01T07:11:48.234Z,10.37
2023-11-01T07:14:19.146Z,10.46
2023-11-01T07:16:49.436Z,10.62
2023-11-01T07:19:21.004Z,10.87
2023-11-01T07:21:49.832Z,10.96
2023-11-01T07:24:19.060Z,11.07
2023-11-01T07:26:49.900Z,10.97
2023-11-01T07:29:19.422Z,11.02
2023-11-01T07:31:50.019Z,11.11
2023-11-01T07:34:20.435Z,11.20
2023-11-01T07:36:50.195Z,11.18
2023-11-01T07:39:20.122Z,11.31
2023-11-01T07:41:49.629Z,11.33
2023-11-01T07:44:20.481Z,11.24
2023-11-01T07:46:52.553Z,11.36
2023-11-01T07:49:27.715Z,11.36
2023-11-01T07:51:56.919Z,11.45
2023-11-01T07:54:26.726Z,11.51
2023-11-01T07:56:57.741Z,11.67
2023-11-01T07:59:29.260Z,11.71
2023-11-01T08:02:03.533Z,11.70
2023-11-01T08:04:33.444Z,11.95
2023-11-01T08:07:04.214Z,12.21
2023-11-01T08:09:33.051Z,12.18
2023-11-01T08:12:05.679Z,12.38
2023-11-01T08:14:35.123Z,12.42
2023-11-01T08:17:07.334Z,12.25
2023-11-01T08:19:37.129Z,12.67
2023-11-01T08:22:07.328Z,13.74
2023-11-01T08:24:36.950Z,14.54
2023-11-01T08:27:13.295Z,14.39
2023-11-01T08:29:44.508Z,13.70
2023-11-01T08:32:15.580Z,13.27
2023-11-01T08:34:47.660Z,12.93
2023-11-01T08:37:17.237Z,12.88
2023-11-01T08:39:46.638Z,13.00
2023-11-01T08:42:17.996Z,13.02
2023-11-01T08:44:47.874Z,13.13
2023-11-01T08:47:40.165Z,14.06
2023-11-01T08:50:13.427Z,15.00
2023-11-01T08:52:44.476Z,15.73
2023-11-01T08:55:15.771Z,15.93
2023-11-01T08:57:46.643Z,15.65
2023-11-01T09:00:17.390Z,15.72
2023-11-01T09:02:47.940Z,15.75
2023-11-01T09:05:17.804Z,15.66
2023-11-01T09:07:50.874Z,15.73
2023-11-01T09:10:23.258Z,15.74
2023-11-01T09:12:53.286Z,16.10
2023-11-01T09:15:23.116Z,16.62
2023-11-01T09:17:56.249Z,16.74
2023-11-01T09:20:29.618Z,16.38
2023-11-01T09:23:00.018Z,16.41
2023-11-01T09:25:31.022Z,16.03
2023-11-01T09:28:00.780Z,16.01
2023-11-01T09:30:30.037Z,16.01
2023-11-01T09:33:07.179Z,16.26
2023-11-01T09:35:39.281Z,16.47
2023-11-01T09:38:10.090Z,16.37
2023-11-01T09:40:39.291Z,16.88
2023-11-01T09:43:14.933Z,17.31
2023-11-01T09:45:45.218Z,17.94
2023-11-01T09:48:18.660Z,18.15
2023-11-01T09:50:50.660Z,17.82
2023-11-01T09:53:24.813Z,18.10
2023-11-01T09:56:00.382Z,19.09
2023-11-01T09:58:32.007Z,20.01
2023-11-01T10:01:03.325Z,20.10
2023-11-01T10:03:36.142Z,19.87
2023-11-01T10:06:09.215Z,20.13
2023-11-01T10:08:38.732Z,20.41
2023-11-01T10:11:08.390Z,19.46
2023-11-01T10:13:37.604Z,19.41
2023-11-01T10:16:08.485Z,19.26
2023-11-01T10:18:42.047Z,19.50
2023-11-01T10:21:12.955Z,18.96
2023-11-01T10:23:42.026Z,19.40
2023-11-01T10:26:11.888Z,19.37
2023-11-01T10:28:43.730Z,19.34
2023-11-01T10:31:16.111Z,19.63
2023-11-01T10:33:49.408Z,19.44
2023-11-01T10:36:21.582Z,20.01
2023-11-01T10:38:53.842Z,19.44
2023-11-01T10:41:25.774Z,19.72
2023-11-01T10:43:56.827Z,18.50
2023-11-01T10:46:27.120Z,18.64
2023-11-01T10:48:57.759Z,18.66
2023-11-01T10:51:26.925Z,18.67
2023-11-01T10:54:04.692Z,20.05
2023-11-01T10:56:40.709Z,19.88
2023-11-01T10:59:16.560Z,20.73
2023-11-01T11:01:53.234Z,21.38
2023-11-01T11:04:33.024Z,20.84
2023-11-01T11:07:24.409Z,21.52
2023-11-01T11:10:29.210Z,20.82
2023-11-01T11:13:33.958Z,21.28
2023-11-01T11:16:02.994Z,21.09
2023-11-01T11:19:01.040Z,21.03
2023-11-01T11:22:04.057Z,21.60
2023-11-01T11:24:59.207Z,21.81
2023-11-01T11:27:56.206Z,21.46
2023-11-01T11:31:04.733Z,21.61
2023-11-01T11:33:38.500Z,21.92
2023-11-01T11:36:14.901Z,21.94
2023-11-01T11:38:55.359Z,22.34
2023-11-01T11:41:29.206Z,21.92
2023-11-01T11:44:03.212Z,20.68
2023-11-01T11:46:37.417Z,20.83
2023-11-01T11:49:08.004Z,21.62
2023-11-01T11:51:39.048Z,20.39
2023-11-01T11:54:13.065Z,20.00
2023-11-01T11:56:44.008Z,20.55
2023-11-01T11:59:20.947Z,21.69
2023-11-01T12:01:53.004Z,22.52
2023-11-01T12:04:22.647Z,23.00
2023-11-01T12:06:53.531Z,22.27
2023-11-01T12:09:25.685Z,22.31
2023-11-01T12:11:56.006Z,20.68
2023-11-01T12:14:28.042Z,19.44
2023-11-01T12:17:01.683Z,18.67
2023-11-01T12:19:33.989Z,18.39
2023-11-01T12:22:09.391Z,17.90
2023-11-01T12:24:45.791Z,17.67
2023-11-01T12:27:18.917Z,17.58
2023-11-01T12:29:48.492Z,17.61
2023-11-01T12:32:18.615Z,17.58
2023-11-01T12:35:06.327Z,18.32
2023-11-01T12:37:37.120Z,19.63
2023-11-01T12:40:13.696Z,20.81
2023-11-01T12:42:47.169Z,20.92
2023-11-01T12:45:17.542Z,20.10
2023-11-01T12:47:48.300Z,21.01
2023-11-01T12:50:21.366Z,21.22
2023-11-01T12:52:51.424Z,21.43
2023-11-01T12:55:22.779Z,21.23
2023-11-01T12:57:55.974Z,20.63
2023-11-01T13:00:26.688Z,19.77
2023-11-01T13:02:56.252Z,18.98
2023-11-01T13:05:25.572Z,18.21
2023-11-01T13:07:58.223Z,18.11
2023-11-01T13:10:36.455Z,17.95
2023-11-01T13:13:07.745Z,17.84
2023-11-01T13:15:38.287Z,17.64
2023-11-01T13:18:12.946Z,17.52
2023-11-01T13:20:42.349Z,17.44
2023-11-01T13:23:12.177Z,17.41
2023-11-01T13:25:45.926Z,17.48
2023-11-01T13:28:14.934Z,17.52
2023-11-01T13:30:44.363Z,17.44
2023-11-01T13:33:18.806Z,17.40
2023-11-01T13:35:48.067Z,17.41
2023-11-01T13:38:17.620Z,17.45
2023-11-01T13:40:48.634Z,17.31
2023-11-01T13:43:18.521Z,17.25
2023-11-01T13:45:48.451Z,17.28
2023-11-01T13:48:19.599Z,17.28
2023-11-01T13:50:49.216Z,17.22
2023-11-01T13:53:21.214Z,17.15
2023-11-01T13:55:54.858Z,17.05
2023-11-01T13:58:27.834Z,17.04
2023-11-01T14:00:57.503Z,16.88
2023-11-01T14:03:27.201Z,16.88
2023-11-01T14:05:56.156Z,16.87
2023-11-01T14:08:25.118Z,16.82
2023-11-01T14:10:58.441Z,16.84
2023-11-01T14:13:28.421Z,16.92
2023-11-01T14:15:57.948Z,17.00
2023-11-01T14:18:30.265Z,17.00
2023-11-01T14:21:01.499Z,16.99
2023-11-01T14:23:31.530Z,16.82
2023-11-01T14:26:02.190Z,16.79
2023-11-01T14:28:34.334Z,16.71
2023-11-01T14:31:07.893Z,16.62
2023-11-01T14:33:37.366Z,16.68
2023-11-01T14:36:08.688Z,16.43
2023-11-01T14:38:38.439Z,16.33
2023-11-01T14:41:09.915Z,16.26
2023-11-01T14:43:39.513Z,16.16
2023-11-01T14:46:10.799Z,16.12
2023-11-01T14:48:40.302Z,16.10
2023-11-01T14:51:13.099Z,16.00
2023-11-01T14:53:43.023Z,15.97
2023-11-01T14:56:17.753Z,15.95
2023-11-01T14:58:50.121Z,15.89
2023-11-01T15:01:19.680Z,15.85
2023-11-01T15:03:50.102Z,15.78
2023-11-01T15:06:19.228Z,15.72
2023-11-01T15:08:48.465Z,15.75
2023-11-01T15:11:19.158Z,15.71
2023-11-01T15:13:48.808Z,15.62
2023-11-01T15:16:31.898Z,15.64
2023-11-01T15:19:00.866Z,15.55
2023-11-01T15:21:32.331Z,15.48
2023-11-01T15:24:03.177Z,15.46
2023-11-01T15:26:37.985Z,15.39
2023-11-01T15:29:07.663Z,15.41
2023-11-01T15:31:38.497Z,15.33
2023-11-01T15:34:09.865Z,15.28
2023-11-01T15:36:39.010Z,15.24
2023-11-01T15:39:08.379Z,15.10
2023-11-01T15:41:39.242Z,15.08
2023-11-01T15:44:09.162Z,15.06
2023-11-01T15:46:41.497Z,14.99
2023-11-01T15:49:14.690Z,15.02
2023-11-01T15:51:44.729Z,14.98
2023-11-01T15:54:14.627Z,15.00
2023-11-01T15:56:46.429Z,14.97
2023-11-01T15:59:24.733Z,14.91
2023-11-01T16:01:55.757Z,14.93
2023-11-01T16:04:27.243Z,14.84
2023-11-01T16:06:57.979Z,14.88
2023-11-01T16:09:27.980Z,14.82
2023-11-01T16:12:00.455Z,14.78
2023-11-01T16:14:30.377Z,14.79
2023-11-01T16:17:01.969Z,14.71
2023-11-01T16:19:34.720Z,14.75
2023-11-01T16:22:04.680Z,14.70
2023-11-01T16:24:34.349Z,14.65
2023-11-01T16:27:05.477Z,14.64
2023-11-01T16:29:34.427Z,14.57
2023-11-01T16:32:03.737Z,14.54
2023-11-01T16:34:33.009Z,14.58
2023-11-01T16:37:02.975Z,14.52
2023-11-01T16:39:32.340Z,14.48
2023-11-01T16:42:02.029Z,14.43
2023-11-01T16:44:32.778Z,14.41
2023-11-01T16:47:02.324Z,14.38
2023-11-01T16:49:31.446Z,14.34
2023-11-01T16:52:02.008Z,14.38
2023-11-01T16:54:31.158Z,14.44
2023-11-01T16:57:00.234Z,14.43
2023-11-01T16:59:29.717Z,14.37
2023-11-01T17:02:03.833Z,14.44
2023-11-01T17:04:36.065Z,14.46
2023-11-01T17:07:05.437Z,14.38
2023-11-01T17:09:37.763Z,14.36
2023-11-01T17:12:09.010Z,14.22
2023-11-01T17:14:39.848Z,14.28
2023-11-01T17:17:10.328Z,14.32
2023-11-01T17:19:40.187Z,14.29
2023-11-01T17:22:30.062Z,14.26
2023-11-01T17:24:59.921Z,14.27
2023-11-01T17:27:36.391Z,14.27
2023-11-01T17:30:07.855Z,14.19
2023-11-01T17:32:40.472Z,14.24
2023-11-01T17:35:11.814Z,14.24
2023-11-01T17:37:50.181Z,14.23
2023-11-01T17:40:20.718Z,14.16
2023-11-01T17:42:50.284Z,14.21
2023-11-01T17:45:19.538Z,14.12
2023-11-01T17:47:51.082Z,14.11
2023-11-01T17:50:20.563Z,14.05
2023-11-01T17:52:53.814Z,14.06
2023-11-01T17:55:23.788Z,14.08
2023-11-01T17:57:53.456Z,14.05
2023-11-01T18:00:28.915Z,14.04
2023-11-01T18:03:19.042Z,14.04
2023-11-01T18:05:50.037Z,13.93
2023-11-01T18:08:21.201Z,13.95
2023-11-01T18:10:53.181Z,13.93
2023-11-01T18:13:24.579Z,13.87
2023-11-01T18:15:57.144Z,13.84
2023-11-01T18:18:45.057Z,13.83
2023-11-01T18:21:21.349Z,13.82
2023-11-01T18:23:59.721Z,13.75
2023-11-01T18:26:32.755Z,13.72
2023-11-01T18:29:03.432Z,13.60
2023-11-01T18:31:35.730Z,13.62
2023-11-01T18:34:11.752Z,13.58
2023-11-01T18:36:46.966Z,13.54
2023-11-01T18:39:36.863Z,13.53
2023-11-01T18:42:11.732Z,13.58
2023-11-01T18:44:45.355Z,13.55
2023-11-01T18:47:21.685Z,13.51
2023-11-01T18:49:59.802Z,13.56
2023-11-01T18:52:31.043Z,13.46
2023-11-01T18:55:01.085Z,13.46
2023-11-01T18:57:34.038Z,13.50
2023-11-01T19:00:04.112Z,13.38
2023-11-01T19:03:08.112Z,13.41
2023-11-01T19:05:42.797Z,13.47
2023-11-01T19:08:15.181Z,13.48
2023-11-01T19:10:54.879Z,13.40
2023-11-01T19:13:25.054Z,13.36
2023-11-01T19:16:13.604Z,13.36
2023-11-01T19:18:44.502Z,13.29
2023-11-01T19:21:16.205Z,13.28
2023-11-01T19:23:48.314Z,13.23
2023-11-01T19:26:20.363Z,13.23
2023-11-01T19:28:53.266Z,13.26
2023-11-01T19:31:23.421Z,13.24
2023-11-01T19:33:55.670Z,13.18
2023-11-01T19:36:28.638Z,13.22
2023-11-01T19:38:58.663Z,13.13
2023-11-01T19:41:30.792Z,13.10
2023-11-01T19:44:05.194Z,13.02
2023-11-01T19:46:38.111Z,13.02
2023-11-01T19:49:08.418Z,13.01
2023-11-01T19:51:42.951Z,12.90
2023-11-01T19:54:12.585Z,12.89
2023-11-01T19:56:42.557Z,12.87
2023-11-01T19:59:12.733Z,12.82
2023-11-01T20:01:42.806Z,12.71
2023-11-01T20:04:13.223Z,12.69
2023-11-01T20:06:46.405Z,12.57
2023-11-01T20:09:17.151Z,12.61
2023-11-01T20:11:49.009Z,12.58
2023-11-01T20:14:24.563Z,12.50
2023-11-01T20:16:54.288Z,12.52
2023-11-01T20:19:26.377Z,12.48
2023-11-01T20:21:58.264Z,12.49
2023-11-01T20:24:27.527Z,12.50
2023-11-01T20:26:57.795Z,12.53
2023-11-01T20:29:27.722Z,12.50
2023-11-01T20:31:56.951Z,12.54
2023-11-01T20:34:26.354Z,12.61
2023-11-01T20:36:55.283Z,12.50
2023-11-01T20:39:29.102Z,12.46
2023-11-01T20:41:58.311Z,12.50
2023-11-01T20:44:28.322Z,12.57
2023-11-01T20:47:03.555Z,12.58
2023-11-01T20:49:33.222Z,12.58
2023-11-01T20:52:03.697Z,12.54
2023-11-01T20:54:35.495Z,12.56
2023-11-01T20:57:10.292Z,12.52
2023-11-01T20:59:43.960Z,12.42
2023-11-01T21:02:18.199Z,12.28
2023-11-01T21:04:48.794Z,12.36
2023-11-01T21:07:18.629Z,12.36
2023-11-01T21:09:49.590Z,12.38
2023-11-01T21:12:23.701Z,12.45
2023-11-01T21:14:53.548Z,12.38
2023-11-01T21:17:23.736Z,12.45
2023-11-01T21:19:55.388Z,12.48
2023-11-01T21:22:27.393Z,12.48
2023-11-01T21:24:59.370Z,12.46
2023-11-01T21:27:28.286Z,12.47
2023-11-01T21:29:59.305Z,12.36
2023-11-01T21:32:29.783Z,12.42
2023-11-01T21:35:01.852Z,12.45
2023-11-01T21:37:32.116Z,12.42
2023-11-01T21:40:02.904Z,12.45
2023-11-01T21:42:36.608Z,12.41
2023-11-01T21:45:15.635Z,12.51
2023-11-01T21:47:44.627Z,12.49
2023-11-01T21:50:50.260Z,12.46
2023-11-01T21:53:19.453Z,12.37
2023-11-01T21:55:56.134Z,12.25
2023-11-01T21:58:28.107Z,12.16
2023-11-01T22:00:59.890Z,12.01
2023-11-01T22:03:40.986Z,11.94
2023-11-01T22:06:16.541Z,11.93
2023-11-01T22:08:59.298Z,11.90
2023-11-01T22:11:32.237Z,11.84
2023-11-01T22:14:11.032Z,11.80
2023-11-01T22:16:42.365Z,11.92
2023-11-01T22:19:34.689Z,12.01
2023-11-01T22:22:06.572Z,12.07
2023-11-01T22:24:38.729Z,11.99
2023-11-01T22:27:11.444Z,11.97
2023-11-01T22:29:45.534Z,11.89
2023-11-01T22:32:25.932Z,11.84
2023-11-01T22:34:56.548Z,11.76
2023-11-01T22:37:27.285Z,11.70
2023-11-01T22:40:16.676Z,11.63
2023-11-01T22:42:59.709Z,11.71
2023-11-01T22:45:37.732Z,11.73
2023-11-01T22:48:08.445Z,11.65
2023-11-01T22:50:38.235Z,11.55
2023-11-01T22:53:10.578Z,11.48
2023-11-01T22:55:42.385Z,11.38
2023-11-01T22:58:20.061Z,11.30
2023-11-01T23:00:51.601Z,11.19
2023-11-01T23:03:21.711Z,11.15
2023-11-01T23:05:51.806Z,11.09
2023-11-01T23:08:21.305Z,11.16
2023-11-01T23:10:53.849Z,11.06
2023-11-01T23:13:27.134Z,11.09
2023-11-01T23:15:56.469Z,11.12
2023-11-01T23:18:25.867Z,11.08
2023-11-01T23:20:58.712Z,11.04
2023-11-01T23:23:34.821Z,11.04
2023-11-01T23:26:06.806Z,10.95
2023-11-01T23:29:06.753Z,10.95
2023-11-01T23:31:55.506Z,10.96
2023-11-01T23:34:53.255Z,10.90
2023-11-01T23:37:36.105Z,10.92
2023-11-01T23:40:16.044Z,10.91
2023-11-01T23:42:49.460Z,10.87
2023-11-01T23:46:07.149Z,10.81
2023-11-01T23:48:37.956Z,10.71
2023-11-01T23:51:12.000Z,10.75
2023-11-01T23:53:42.508Z,10.68
2023-11-01T23:56:22.034Z,10.58
2023-11-01T23:58:55.157Z,10.60
